Etusivu
METAR-TAF:

METAR-TAF

Lentoasemat :

Larnakan kansainvälinen lentoasema

Larnaka, Kypros

Leveyspiiri: 34-53N, Pituuspiiri: 033-38E, korkeus merenpinnasta: 2 m

Tämänhetkinen sää

Tämä raportti tehtiin 33 minuuttia sitten, kello 01.30 UTC
Tuuli 6 kn lännestä/luoteesta
Lämpötila 14°C
Kosteus 77%
Ilmanpaine 1020 hPa
Näkyvyys 10 km tai enemmän
ei pilviä alle 1500 m:ssä eikä cumulonimbus-pilviä

METAR: LCLK 200130Z 30006KT CAVOK 14/10 Q1020 NOSIG

Aika: 04:03 (02:03 UTC)

Sääennuste

Tämä raportti tehtiin 2 tuntia ja 33 minuuttia sitten, kello 23.30 UTC
Ennuste voimassa 20. päivästä klo 00 UTC - 20. päivään klo 24 UTC
Tuuli 6 kn luoteesta
Näkyvyys 10 km tai enemmän
Muutamia pilviä 2500 ft:n korkeudessa
Tulossa
20. päivästä klo 09 UTC - 20. päivään klo 12 UTC
Tuuli 10 kn etelästä
Tulossa
20. päivästä klo 15 UTC - 20. päivään klo 18 UTC
Tuuli 7 kn luoteesta

TAF: LCLK 192330Z 2000/2024 32006KT 9999 FEW025 BECMG 2009/2012 18010KT BECMG 2015/2018 32007KT

Säähavainnot ja -ennusteet yli 4000 lentoasemalta (METAR- ja TAF-raportit).

Käytössä olevat sääasemat on merkitty karttaan keltaisilla ja punaisilla pisteillä.

Aseta hiiri pisteen päälle nähdäksesi sääaseman nimen.

Klikkaa sitten nähdäksesi säähavainnot ja -ennusteet.

Kartan vaihtaminen: klikkaa mustalla rastilla varustettuja vihreitä pisteitä, niin voit zoomata sisään; viivalla varustettua vihreää pistettä, niin voit zoomata ulos tai vihreitä nuolia, niin pääset viereisille kartoille.


METAR-TAF: